createdAt,value
2023-04-16T00:00:07.797Z,1.95
2023-04-16T00:03:10.447Z,2.00
2023-04-16T00:06:14.789Z,1.88
2023-04-16T00:09:17.311Z,1.40
2023-04-16T00:12:19.856Z,1.60
2023-04-16T00:15:22.447Z,2.30
2023-04-16T00:18:25.083Z,2.05
2023-04-16T00:21:29.052Z,1.80
2023-04-16T00:24:31.544Z,2.00
2023-04-16T00:27:34.047Z,2.28
2023-04-16T00:30:36.620Z,1.92
2023-04-16T00:33:39.186Z,1.52
2023-04-16T00:36:43.113Z,2.10
2023-04-16T00:39:45.648Z,2.10
2023-04-16T00:42:48.226Z,1.75
2023-04-16T00:45:50.780Z,2.13
2023-04-16T00:48:54.641Z,1.73
2023-04-16T00:51:58.608Z,2.03
2023-04-16T00:55:01.214Z,1.63
2023-04-16T00:58:04.120Z,1.95
2023-04-16T01:01:06.803Z,1.98
2023-04-16T01:04:09.599Z,2.25
2023-04-16T01:07:13.566Z,1.83
2023-04-16T01:10:16.109Z,1.88
2023-04-16T01:13:18.617Z,1.33
2023-04-16T01:16:21.201Z,1.83
2023-04-16T01:19:23.808Z,1.55
2023-04-16T01:22:27.912Z,1.80
2023-04-16T01:25:30.488Z,1.80
2023-04-16T01:28:33.034Z,2.05
2023-04-16T01:31:35.621Z,1.90
2023-04-16T01:34:38.213Z,2.15
2023-04-16T01:37:42.127Z,2.20
2023-04-16T01:40:44.626Z,1.85
2023-04-16T01:43:47.166Z,2.30
2023-04-16T01:46:49.808Z,2.08
2023-04-16T01:49:52.399Z,2.38
2023-04-16T01:52:56.276Z,2.13
2023-04-16T01:55:58.848Z,2.28
2023-04-16T01:59:01.431Z,2.80
2023-04-16T02:02:04.539Z,2.58
2023-04-16T02:05:07.603Z,3.42
2023-04-16T02:08:11.481Z,3.22
2023-04-16T02:11:13.988Z,2.67
2023-04-16T02:14:16.500Z,2.50
2023-04-16T02:17:19.079Z,3.13
2023-04-16T02:20:21.712Z,2.30
2023-04-16T02:23:25.630Z,2.40
2023-04-16T02:26:29.154Z,4.15
2023-04-16T02:29:31.911Z,2.70
2023-04-16T02:32:34.478Z,2.38
2023-04-16T02:35:37.123Z,2.83
2023-04-16T02:38:41.144Z,1.98
2023-04-16T02:41:43.700Z,2.78
2023-04-16T02:44:46.205Z,3.97
2023-04-16T02:47:48.899Z,3.00
2023-04-16T02:50:51.471Z,3.10
2023-04-16T02:53:55.403Z,2.85
2023-04-16T02:56:57.998Z,2.42
2023-04-16T03:00:00.633Z,3.90
2023-04-16T03:03:03.278Z,2.78
2023-04-16T03:06:06.012Z,3.50
2023-04-16T03:09:10.171Z,2.83
2023-04-16T03:12:12.870Z,2.70
2023-04-16T03:15:15.420Z,3.20
2023-04-16T03:18:17.977Z,3.15
2023-04-16T03:21:20.639Z,2.97
2023-04-16T03:24:24.677Z,3.00
2023-04-16T03:27:27.175Z,3.05
2023-04-16T03:30:29.702Z,3.03
2023-04-16T03:33:32.256Z,4.22
2023-04-16T03:36:34.813Z,3.55
2023-04-16T03:39:38.715Z,3.25
2023-04-16T03:42:41.381Z,3.97
2023-04-16T03:45:45.296Z,3.83
2023-04-16T03:48:47.892Z,3.53
2023-04-16T03:51:50.485Z,2.78
2023-04-16T03:54:54.376Z,3.97
2023-04-16T03:57:57.406Z,3.70
2023-04-16T04:00:59.978Z,3.67
2023-04-16T04:04:02.670Z,3.40
2023-04-16T04:07:06.438Z,4.05
2023-04-16T04:10:11.180Z,5.13
2023-04-16T04:13:13.759Z,3.10
2023-04-16T04:16:16.402Z,3.28
2023-04-16T04:19:18.970Z,3.55
2023-04-16T04:22:21.549Z,3.53
2023-04-16T04:25:25.758Z,3.00
2023-04-16T04:28:28.264Z,2.83
2023-04-16T04:31:30.906Z,2.70
2023-04-16T04:34:33.543Z,3.63
2023-04-16T04:37:36.157Z,3.75
2023-04-16T04:40:40.037Z,2.72
2023-04-16T04:43:42.573Z,2.95
2023-04-16T04:46:45.129Z,2.95
2023-04-16T04:49:47.697Z,2.60
2023-04-16T04:52:50.412Z,2.33
2023-04-16T04:55:57.571Z,3.03
2023-04-16T04:59:08.038Z,2.40
2023-04-16T05:02:10.875Z,2.67
2023-04-16T05:05:13.551Z,3.95
2023-04-16T05:08:16.171Z,2.80
2023-04-16T05:11:20.035Z,2.67
2023-04-16T05:14:22.533Z,3.13
2023-04-16T05:17:25.058Z,2.83
2023-04-16T05:20:27.629Z,2.03
2023-04-16T05:23:30.259Z,2.60
2023-04-16T05:26:34.153Z,2.75
2023-04-16T05:29:36.729Z,2.30
2023-04-16T05:32:40.498Z,2.70
2023-04-16T05:35:43.104Z,3.25
2023-04-16T05:38:45.613Z,2.80
2023-04-16T05:41:49.471Z,3.47
2023-04-16T05:44:52.068Z,2.42
2023-04-16T05:47:54.704Z,2.53
2023-04-16T05:50:57.313Z,2.97
2023-04-16T05:53:59.861Z,2.70
2023-04-16T05:57:04.380Z,2.85
2023-04-16T06:00:08.393Z,3.60
2023-04-16T06:03:11.111Z,2.47
2023-04-16T06:06:13.796Z,3.10
2023-04-16T06:09:16.573Z,3.30
2023-04-16T06:12:20.620Z,3.03
2023-04-16T06:15:23.212Z,2.95
2023-04-16T06:18:25.790Z,2.80
2023-04-16T06:21:28.373Z,3.10
2023-04-16T06:24:31.005Z,2.88
2023-04-16T06:27:34.928Z,3.63
2023-04-16T06:30:37.486Z,3.72
2023-04-16T06:33:40.061Z,3.42
2023-04-16T06:36:42.580Z,3.85
2023-04-16T06:39:45.180Z,4.00
2023-04-16T06:42:49.105Z,3.95
2023-04-16T06:45:52.101Z,4.45
2023-04-16T06:48:54.619Z,4.15
2023-04-16T06:51:57.175Z,4.05
2023-04-16T06:54:59.710Z,4.18
2023-04-16T06:58:03.612Z,4.72
2023-04-16T07:01:06.393Z,4.22
2023-04-16T07:04:09.329Z,4.80
2023-04-16T07:07:12.005Z,4.90
2023-04-16T07:10:14.680Z,5.32
2023-04-16T07:13:19.482Z,4.95
2023-04-16T07:16:22.092Z,4.13
2023-04-16T07:19:24.731Z,3.97
2023-04-16T07:22:27.236Z,4.07
2023-04-16T07:25:29.784Z,3.97
2023-04-16T07:28:33.703Z,4.30
2023-04-16T07:31:36.291Z,3.80
2023-04-16T07:34:38.888Z,3.08
2023-04-16T07:37:41.481Z,3.53
2023-04-16T07:40:44.007Z,3.45
2023-04-16T07:43:47.893Z,3.33
2023-04-16T07:46:50.494Z,3.03
2023-04-16T07:49:53.276Z,2.92
2023-04-16T07:52:55.848Z,2.97
2023-04-16T07:55:58.424Z,3.90
2023-04-16T07:59:11.064Z,3.70
2023-04-16T08:02:17.536Z,3.30
2023-04-16T08:05:20.384Z,4.00
2023-04-16T08:08:23.003Z,3.90
2023-04-16T08:11:25.656Z,5.38
2023-04-16T08:14:29.575Z,4.28
2023-04-16T08:17:34.336Z,3.28
2023-04-16T08:20:36.878Z,4.82
2023-04-16T08:23:39.396Z,4.30
2023-04-16T08:26:41.895Z,4.40
2023-04-16T08:29:45.800Z,3.92
2023-04-16T08:32:50.032Z,3.85
2023-04-16T08:35:52.828Z,4.07
2023-04-16T08:38:55.380Z,3.80
2023-04-16T08:41:58.036Z,3.70
2023-04-16T08:45:07.469Z,3.40
2023-04-16T08:48:10.875Z,4.40
2023-04-16T08:51:13.408Z,3.80
2023-04-16T08:54:16.089Z,3.63
2023-04-16T08:57:20.153Z,3.65
2023-04-16T09:00:24.265Z,4.30
2023-04-16T09:03:26.943Z,3.80
2023-04-16T09:06:29.578Z,4.75
2023-04-16T09:09:34.555Z,3.60
2023-04-16T09:12:37.182Z,4.63
2023-04-16T09:15:41.137Z,3.45
2023-04-16T09:18:43.732Z,4.28
2023-04-16T09:21:47.302Z,3.70
2023-04-16T09:24:49.822Z,4.30
2023-04-16T09:27:52.396Z,4.68
2023-04-16T09:31:12.870Z,3.70
2023-04-16T09:34:15.640Z,3.55
2023-04-16T09:37:18.211Z,4.05
2023-04-16T09:40:24.648Z,3.72
2023-04-16T09:43:27.839Z,3.70
2023-04-16T09:46:32.650Z,3.60
2023-04-16T09:49:35.441Z,3.28
2023-04-16T09:52:38.378Z,3.60
2023-04-16T09:55:40.900Z,4.03
2023-04-16T09:58:43.472Z,4.20
2023-04-16T10:01:49.394Z,4.40
2023-04-16T10:04:53.091Z,5.88
2023-04-16T10:07:55.825Z,3.90
2023-04-16T10:10:58.424Z,6.07
2023-04-16T10:14:01.431Z,4.82
2023-04-16T10:17:06.209Z,4.78
2023-04-16T10:20:09.275Z,4.05
2023-04-16T10:23:11.848Z,4.20
2023-04-16T10:26:14.387Z,3.80
2023-04-16T10:29:16.979Z,4.75
2023-04-16T10:32:21.737Z,4.68
2023-04-16T10:35:26.121Z,4.05
2023-04-16T10:38:28.850Z,3.80
2023-04-16T10:41:33.433Z,3.72
2023-04-16T10:44:36.032Z,5.20
2023-04-16T10:47:43.177Z,4.40
2023-04-16T10:51:00.102Z,4.40
2023-04-16T10:54:04.992Z,4.30
2023-04-16T10:57:08.407Z,4.28
2023-04-16T11:00:22.936Z,4.13
2023-04-16T11:03:27.385Z,3.20
2023-04-16T11:06:32.092Z,3.95
2023-04-16T11:09:56.122Z,5.15
2023-04-16T11:12:58.756Z,7.25
2023-04-16T11:16:02.231Z,8.80
2023-04-16T11:19:06.111Z,7.38
2023-04-16T11:22:08.657Z,4.85
2023-04-16T11:25:11.215Z,4.53
2023-04-16T11:28:13.713Z,3.88
2023-04-16T11:31:16.524Z,3.63
2023-04-16T11:34:20.665Z,3.50
2023-04-16T11:37:23.632Z,3.63
2023-04-16T11:40:26.382Z,3.42
2023-04-16T11:43:28.889Z,4.63
2023-04-16T11:46:39.145Z,3.90
2023-04-16T11:49:43.091Z,3.83
2023-04-16T11:52:45.631Z,3.88
2023-04-16T11:55:48.230Z,4.80
2023-04-16T11:59:09.417Z,4.20
2023-04-16T12:02:12.197Z,4.57
2023-04-16T12:05:30.151Z,5.00
2023-04-16T12:11:41.475Z,5.20
2023-04-16T12:14:50.975Z,4.72
2023-04-16T12:18:03.394Z,4.10
2023-04-16T12:21:07.888Z,5.07
2023-04-16T12:24:11.353Z,5.35
2023-04-16T12:27:13.860Z,4.93
2023-04-16T12:30:16.757Z,5.03
2023-04-16T12:33:21.049Z,4.95
2023-04-16T12:36:24.923Z,5.35
2023-04-16T12:39:27.480Z,5.82
2023-04-16T12:42:35.559Z,5.35
2023-04-16T12:45:38.859Z,5.25
2023-04-16T12:48:41.567Z,6.30
2023-04-16T12:51:45.524Z,5.65
2023-04-16T12:54:48.075Z,5.68
2023-04-16T12:57:52.664Z,6.38
2023-04-16T13:00:55.197Z,5.95
2023-04-16T13:03:58.075Z,5.97
2023-04-16T13:07:02.218Z,6.93
2023-04-16T13:10:05.225Z,6.10
2023-04-16T13:13:07.796Z,5.30
2023-04-16T13:16:10.466Z,6.57
2023-04-16T13:19:13.140Z,5.95
2023-04-16T13:22:17.172Z,6.28
2023-04-16T13:25:19.829Z,5.28
2023-04-16T13:28:22.383Z,6.15
2023-04-16T13:31:24.995Z,5.53
2023-04-16T13:34:27.599Z,5.88
2023-04-16T13:37:31.497Z,5.10
2023-04-16T13:40:34.066Z,5.38
2023-04-16T13:43:37.858Z,5.20
2023-04-16T13:46:40.457Z,5.05
2023-04-16T13:49:43.038Z,7.30
2023-04-16T13:52:46.926Z,5.03
2023-04-16T13:55:49.856Z,5.32
2023-04-16T13:58:52.389Z,5.68
2023-04-16T14:01:55.041Z,6.22
2023-04-16T14:04:57.634Z,6.88
2023-04-16T14:08:01.518Z,6.18
2023-04-16T14:11:05.465Z,5.35
2023-04-16T14:14:08.055Z,6.53
2023-04-16T14:17:10.693Z,6.20
2023-04-16T14:20:14.054Z,6.45
2023-04-16T14:23:18.004Z,5.97
2023-04-16T14:26:20.634Z,6.45
2023-04-16T14:29:23.183Z,6.13
2023-04-16T14:32:25.722Z,5.95
2023-04-16T14:35:28.403Z,6.50
2023-04-16T14:38:32.438Z,6.95
2023-04-16T14:41:35.156Z,7.10
2023-04-16T14:44:37.921Z,6.43
2023-04-16T14:47:45.636Z,6.60
2023-04-16T14:50:48.363Z,6.18
2023-04-16T14:53:52.224Z,5.75
2023-04-16T14:56:54.770Z,6.38
2023-04-16T14:59:57.288Z,6.72
2023-04-16T15:03:00.015Z,7.10
2023-04-16T15:06:02.645Z,6.55
2023-04-16T15:09:07.404Z,4.47
2023-04-16T15:12:09.989Z,5.55
2023-04-16T15:15:12.758Z,6.43
2023-04-16T15:18:16.328Z,5.78
2023-04-16T15:21:18.936Z,5.03
2023-04-16T15:24:22.859Z,5.10
2023-04-16T15:27:25.568Z,5.60
2023-04-16T15:30:28.109Z,5.60
2023-04-16T15:33:30.695Z,5.07
2023-04-16T15:36:33.279Z,6.57
2023-04-16T15:39:37.154Z,6.07
2023-04-16T15:42:39.877Z,6.88
2023-04-16T15:45:42.533Z,5.25
2023-04-16T15:48:45.215Z,7.03
2023-04-16T15:51:47.787Z,7.53
2023-04-16T15:54:51.676Z,7.20
2023-04-16T15:57:54.179Z,6.70
2023-04-16T16:00:56.704Z,6.78
2023-04-16T16:03:59.364Z,7.57
2023-04-16T16:07:03.020Z,6.70
2023-04-16T16:10:08.189Z,7.82
2023-04-16T16:13:13.079Z,7.97
2023-04-16T16:16:16.037Z,8.40
2023-04-16T16:19:18.680Z,9.02
2023-04-16T16:22:23.534Z,11.43
2023-04-16T16:25:27.473Z,7.82
2023-04-16T16:28:29.981Z,10.60
2023-04-16T16:31:32.561Z,8.60
2023-04-16T16:34:35.392Z,9.50
2023-04-16T16:37:38.220Z,7.55
2023-04-16T16:40:42.159Z,8.95
2023-04-16T16:43:44.653Z,15.27
2023-04-16T16:46:48.090Z,9.50
2023-04-16T16:49:51.143Z,14.30
2023-04-16T16:52:53.716Z,7.15
2023-04-16T16:55:57.634Z,8.10
2023-04-16T16:59:00.177Z,7.22
2023-04-16T17:02:03.455Z,7.97
2023-04-16T17:05:07.487Z,8.95
2023-04-16T17:08:10.335Z,7.55
2023-04-16T17:11:14.448Z,7.80
2023-04-16T17:14:17.064Z,9.30
2023-04-16T17:17:19.654Z,7.53
2023-04-16T17:20:22.185Z,8.40
2023-04-16T17:23:24.680Z,8.68
2023-04-16T17:26:28.622Z,9.70
2023-04-16T17:29:31.240Z,10.05
2023-04-16T17:32:33.974Z,9.98
2023-04-16T17:35:36.630Z,9.95
2023-04-16T17:38:39.261Z,11.57
2023-04-16T17:41:43.128Z,10.55
2023-04-16T17:44:45.794Z,12.05
2023-04-16T17:47:48.337Z,11.68
2023-04-16T17:50:50.910Z,11.60
2023-04-16T17:53:53.479Z,12.02
2023-04-16T17:56:58.370Z,11.93
2023-04-16T18:00:00.917Z,13.98
2023-04-16T18:03:03.656Z,12.88
2023-04-16T18:06:06.684Z,14.15
2023-04-16T18:09:09.221Z,14.68
2023-04-16T18:12:13.207Z,12.70
2023-04-16T18:15:15.881Z,14.00
2023-04-16T18:18:20.017Z,13.02
2023-04-16T18:21:22.582Z,14.23
2023-04-16T18:24:25.221Z,15.38
2023-04-16T18:27:29.142Z,15.18
2023-04-16T18:30:31.666Z,13.80
2023-04-16T18:33:53.957Z,14.73
2023-04-16T18:36:56.865Z,15.70
2023-04-16T18:39:59.462Z,14.52
2023-04-16T18:43:03.403Z,14.07
2023-04-16T18:46:06.093Z,13.38
2023-04-16T18:49:08.875Z,14.60
2023-04-16T18:52:11.600Z,14.68
2023-04-16T18:55:14.134Z,13.82
2023-04-16T18:58:18.006Z,12.00
2023-04-16T19:01:20.687Z,14.10
2023-04-16T19:04:23.326Z,13.68
2023-04-16T19:07:25.901Z,14.80
2023-04-16T19:10:28.494Z,13.27
2023-04-16T19:13:32.761Z,13.13
2023-04-16T19:16:35.370Z,14.73
2023-04-16T19:19:37.955Z,13.60
2023-04-16T19:22:40.706Z,14.25
2023-04-16T19:25:43.246Z,14.90
2023-04-16T19:28:47.124Z,14.23
2023-04-16T19:31:49.743Z,17.30
2023-04-16T19:34:52.361Z,15.63
2023-04-16T19:37:56.199Z,15.13
2023-04-16T19:40:58.767Z,15.13
2023-04-16T19:44:02.657Z,14.95
2023-04-16T19:47:06.132Z,15.52
2023-04-16T19:50:09.568Z,16.30
2023-04-16T19:53:12.171Z,15.88
2023-04-16T19:56:15.867Z,15.45
2023-04-16T19:59:20.460Z,16.20
2023-04-16T20:02:23.201Z,16.05
2023-04-16T20:05:26.088Z,14.32
2023-04-16T20:08:28.659Z,16.30
2023-04-16T20:11:31.301Z,16.23
2023-04-16T20:14:35.233Z,15.75
2023-04-16T20:17:37.891Z,16.15
2023-04-16T20:20:41.418Z,17.92
2023-04-16T20:23:44.000Z,16.77
2023-04-16T20:26:46.527Z,17.98
2023-04-16T20:29:51.672Z,17.13
2023-04-16T20:32:54.193Z,20.40
2023-04-16T20:35:56.761Z,20.27
2023-04-16T20:39:02.078Z,19.42
2023-04-16T20:42:09.962Z,21.35
2023-04-16T20:45:14.314Z,21.35
2023-04-16T20:48:17.005Z,20.10
2023-04-16T20:51:19.643Z,21.90
2023-04-16T20:54:22.157Z,23.58
2023-04-16T20:57:24.708Z,20.75
2023-04-16T21:00:28.583Z,22.17
2023-04-16T21:03:31.327Z,21.80
2023-04-16T21:06:38.346Z,20.45
2023-04-16T21:09:41.196Z,19.63
2023-04-16T21:12:43.779Z,20.02
2023-04-16T21:15:47.690Z,22.17
2023-04-16T21:18:50.372Z,19.98
2023-04-16T21:21:52.949Z,22.55
2023-04-16T21:24:55.484Z,22.35
2023-04-16T21:27:58.098Z,25.65
2023-04-16T21:31:02.058Z,27.08
2023-04-16T21:34:04.647Z,25.38
2023-04-16T21:37:07.174Z,26.70
2023-04-16T21:40:10.193Z,27.65
2023-04-16T21:43:12.757Z,27.83
2023-04-16T21:46:16.691Z,28.02
2023-04-16T21:49:19.353Z,29.35
2023-04-16T21:52:21.993Z,29.17
2023-04-16T21:55:24.695Z,27.90
2023-04-16T21:58:27.265Z,29.85
2023-04-16T22:01:31.241Z,28.10
2023-04-16T22:04:38.391Z,28.33
2023-04-16T22:07:41.248Z,26.75
2023-04-16T22:10:43.850Z,29.42
2023-04-16T22:13:47.504Z,28.15
2023-04-16T22:16:52.197Z,29.13
2023-04-16T22:19:54.908Z,29.58
2023-04-16T22:22:58.570Z,27.52
2023-04-16T22:26:02.483Z,28.77
2023-04-16T22:29:05.069Z,28.48
2023-04-16T22:32:09.001Z,29.52
2023-04-16T22:35:12.458Z,32.47
2023-04-16T22:38:14.999Z,32.00
2023-04-16T22:41:17.612Z,31.73
2023-04-16T22:44:20.205Z,35.45
2023-04-16T22:47:24.117Z,33.05
2023-04-16T22:50:27.089Z,32.63
2023-04-16T22:53:29.585Z,31.35
2023-04-16T22:56:32.147Z,30.25
2023-04-16T22:59:34.738Z,32.05
2023-04-16T23:02:38.735Z,30.13
2023-04-16T23:05:41.354Z,31.25
2023-04-16T23:08:43.943Z,30.40
2023-04-16T23:11:46.519Z,30.08
2023-04-16T23:14:49.116Z,31.88
2023-04-16T23:17:53.040Z,33.17
2023-04-16T23:20:55.655Z,32.10
2023-04-16T23:23:59.073Z,33.17
2023-04-16T23:27:01.619Z,32.92
2023-04-16T23:30:04.512Z,29.25
2023-04-16T23:33:08.557Z,29.35
2023-04-16T23:36:11.294Z,31.92
2023-04-16T23:39:13.910Z,30.55
2023-04-16T23:42:16.555Z,31.83
2023-04-16T23:45:19.265Z,29.08
2023-04-16T23:48:23.118Z,29.38
2023-04-16T23:51:26.202Z,30.63
2023-04-16T23:54:28.720Z,32.45
2023-04-16T23:57:31.229Z,32.35
